AAL541 KTPA-KDCA
Flight info
| Callsign | AAL541 |
|---|---|
| Flight time | 1h 50m |
| Altitude | 37000 |
| Route | BAYPO2 CAMJO Q99 OGRAE FUUFF WAVES CAPSS4 |
| Aircraft | A319/M-SDE3FGHIRWY/LB1 |
Departure
| Time | 2026-05-05 00:54 |
|---|---|
| Airport | Tampa International Airport (KTPA) |
Arrival
| Time | 2026-05-05 02:44 |
|---|---|
| Airport | Ronald Reagan Washington National Airport (KDCA) |
| Time | Latitude | Longitude | Altitude | Speed | Heading |
|---|---|---|---|---|---|
| 2026-05-05 00:28 | 27.97748 | -82.53879 | 42 ft | 0 kts | 146° |
| 2026-05-05 00:42 | 27.97749 | -82.53880 | 43 ft | 1 kts | 146° |
| 2026-05-05 00:42 | 27.97763 | -82.53891 | 41 ft | 3 kts | 146° |
| 2026-05-05 00:42 | 27.97780 | -82.53904 | 41 ft | 3 kts | 146° |
| 2026-05-05 00:43 | 27.97793 | -82.53914 | 40 ft | 1 kts | 146° |
| 2026-05-05 00:43 | 27.97805 | -82.53922 | 40 ft | 3 kts | 190° |
| 2026-05-05 00:43 | 27.97816 | -82.53912 | 42 ft | 3 kts | 252° |
| 2026-05-05 00:43 | 27.97821 | -82.53890 | 43 ft | 3 kts | 259° |
| 2026-05-05 00:44 | 27.97824 | -82.53872 | 43 ft | 1 kts | 260° |
| 2026-05-05 00:44 | 27.97824 | -82.53870 | 43 ft | 2 kts | 260° |
| 2026-05-05 00:48 | 27.97823 | -82.53881 | 43 ft | 4 kts | 260° |
| 2026-05-05 00:48 | 27.97815 | -82.53930 | 42 ft | 7 kts | 260° |
| 2026-05-05 00:48 | 27.97787 | -82.53973 | 44 ft | 8 kts | 203° |
| 2026-05-05 00:48 | 27.97713 | -82.53980 | 46 ft | 13 kts | 181° |
| 2026-05-05 00:49 | 27.97613 | -82.53984 | 47 ft | 15 kts | 183° |
| 2026-05-05 00:49 | 27.97501 | -82.53989 | 47 ft | 17 kts | 180° |
| 2026-05-05 00:49 | 27.97384 | -82.53995 | 47 ft | 15 kts | 188° |
| 2026-05-05 00:49 | 27.97320 | -82.54073 | 48 ft | 13 kts | 207° |
| 2026-05-05 00:50 | 27.97229 | -82.54082 | 48 ft | 14 kts | 181° |
| 2026-05-05 00:50 | 27.97127 | -82.54085 | 49 ft | 16 kts | 182° |
| 2026-05-05 00:50 | 27.97013 | -82.54089 | 49 ft | 17 kts | 182° |
| 2026-05-05 00:50 | 27.96888 | -82.54093 | 49 ft | 19 kts | 181° |
| 2026-05-05 00:51 | 27.96761 | -82.54097 | 49 ft | 19 kts | 181° |
| 2026-05-05 00:51 | 27.96641 | -82.54101 | 49 ft | 17 kts | 182° |
| 2026-05-05 00:51 | 27.96518 | -82.54106 | 48 ft | 18 kts | 181° |
| 2026-05-05 00:51 | 27.96409 | -82.54110 | 48 ft | 13 kts | 182° |
| 2026-05-05 00:52 | 27.96350 | -82.54124 | 47 ft | 5 kts | 220° |
| 2026-05-05 00:52 | 27.96347 | -82.54127 | 47 ft | 0 kts | 226° |
| 2026-05-05 00:52 | 27.96347 | -82.54128 | 47 ft | 1 kts | 226° |
| 2026-05-05 00:52 | 27.96338 | -82.54155 | 46 ft | 7 kts | 259° |
| 2026-05-05 00:53 | 27.96346 | -82.54222 | 45 ft | 9 kts | 305° |
| 2026-05-05 00:53 | 27.96400 | -82.54234 | 48 ft | 7 kts | 0° |
| 2026-05-05 00:53 | 27.96625 | -82.54224 | 50 ft | 73 kts | 2° |
| 2026-05-05 00:53 | 27.97407 | -82.54196 | 50 ft | 149 kts | 2° |
| 2026-05-05 00:54 | 27.98581 | -82.54169 | 469 ft | 169 kts | 3° |
| 2026-05-05 00:54 | 27.99748 | -82.54193 | 1384 ft | 168 kts | 4° |
| 2026-05-05 00:54 | 28.00937 | -82.54260 | 2076 ft | 176 kts | 1° |
| 2026-05-05 00:54 | 28.02215 | -82.54332 | 2496 ft | 191 kts | 1° |
| 2026-05-05 00:55 | 28.03583 | -82.54422 | 3041 ft | 204 kts | 358° |
| 2026-05-05 00:55 | 28.05080 | -82.54580 | 3396 ft | 229 kts | 357° |
| 2026-05-05 00:55 | 28.06750 | -82.54750 | 3882 ft | 251 kts | 357° |
| 2026-05-05 00:55 | 28.08517 | -82.54922 | 4779 ft | 256 kts | 356° |
| 2026-05-05 00:56 | 28.10305 | -82.55111 | 5736 ft | 260 kts | 354° |
| 2026-05-05 00:56 | 28.12117 | -82.55331 | 6601 ft | 265 kts | 353° |
| 2026-05-05 00:56 | 28.14006 | -82.55572 | 7217 ft | 281 kts | 352° |
| 2026-05-05 00:56 | 28.15970 | -82.55813 | 8100 ft | 280 kts | 352° |
| 2026-05-05 00:57 | 28.17891 | -82.56034 | 9187 ft | 277 kts | 352° |
| 2026-05-05 00:57 | 28.19809 | -82.56243 | 10126 ft | 277 kts | 351° |
| 2026-05-05 00:57 | 28.21759 | -82.56457 | 10713 ft | 290 kts | 351° |
| 2026-05-05 00:57 | 28.23845 | -82.56696 | 10986 ft | 313 kts | 351° |
| 2026-05-05 00:58 | 28.26095 | -82.56953 | 11199 ft | 336 kts | 352° |
| 2026-05-05 00:58 | 28.28501 | -82.57225 | 11381 ft | 358 kts | 352° |
| 2026-05-05 00:58 | 28.31053 | -82.57510 | 11888 ft | 367 kts | 352° |
| 2026-05-05 00:58 | 28.33613 | -82.57793 | 12526 ft | 372 kts | 352° |
| 2026-05-05 00:59 | 28.36201 | -82.58075 | 13185 ft | 375 kts | 352° |
| 2026-05-05 00:59 | 28.38818 | -82.58268 | 13839 ft | 379 kts | 355° |
| 2026-05-05 00:59 | 28.41472 | -82.58356 | 14405 ft | 383 kts | 356° |
| 2026-05-05 00:59 | 28.44149 | -82.58389 | 14983 ft | 386 kts | 356° |
| 2026-05-05 01:00 | 28.46846 | -82.58407 | 15565 ft | 389 kts | 356° |
| 2026-05-05 01:00 | 28.49564 | -82.58434 | 16151 ft | 392 kts | 356° |
| 2026-05-05 01:00 | 28.52298 | -82.58478 | 16740 ft | 395 kts | 355° |
| 2026-05-05 01:00 | 28.55057 | -82.58540 | 17328 ft | 398 kts | 354° |
| 2026-05-05 01:01 | 28.57832 | -82.58610 | 17938 ft | 401 kts | 354° |
| 2026-05-05 01:01 | 28.60630 | -82.58683 | 18489 ft | 404 kts | 354° |
| 2026-05-05 01:01 | 28.63453 | -82.58760 | 19011 ft | 406 kts | 354° |
| 2026-05-05 01:01 | 28.66282 | -82.58840 | 19531 ft | 408 kts | 353° |
| 2026-05-05 01:02 | 28.69105 | -82.59142 | 20044 ft | 407 kts | 348° |
| 2026-05-05 01:02 | 28.71926 | -82.59535 | 20573 ft | 409 kts | 348° |
| 2026-05-05 01:02 | 28.74757 | -82.59930 | 21085 ft | 411 kts | 348° |
| 2026-05-05 01:02 | 28.77601 | -82.60327 | 21571 ft | 413 kts | 348° |
| 2026-05-05 01:03 | 28.80463 | -82.60727 | 22052 ft | 415 kts | 348° |
| 2026-05-05 01:03 | 28.83337 | -82.61129 | 22516 ft | 417 kts | 347° |
| 2026-05-05 01:03 | 28.86221 | -82.61531 | 22974 ft | 419 kts | 347° |
| 2026-05-05 01:03 | 28.89120 | -82.61938 | 23414 ft | 421 kts | 347° |
| 2026-05-05 01:04 | 28.92027 | -82.62343 | 23815 ft | 422 kts | 347° |
| 2026-05-05 01:04 | 28.97890 | -82.63156 | 24538 ft | 426 kts | 347° |
| 2026-05-05 01:04 | 29.00834 | -82.63567 | 24887 ft | 427 kts | 347° |
| 2026-05-05 01:05 | 29.03791 | -82.63979 | 25252 ft | 429 kts | 347° |
| 2026-05-05 01:05 | 29.06796 | -82.64398 | 25612 ft | 430 kts | 347° |
| 2026-05-05 01:05 | 29.09776 | -82.64817 | 25953 ft | 432 kts | 347° |
| 2026-05-05 01:05 | 29.12767 | -82.65237 | 26297 ft | 434 kts | 347° |
| 2026-05-05 01:06 | 29.15768 | -82.65658 | 26628 ft | 436 kts | 346° |
| 2026-05-05 01:06 | 29.18785 | -82.66083 | 26952 ft | 437 kts | 346° |
| 2026-05-05 01:06 | 29.21804 | -82.66509 | 27270 ft | 439 kts | 346° |
| 2026-05-05 01:06 | 29.24844 | -82.66938 | 27580 ft | 440 kts | 346° |
| 2026-05-05 01:07 | 29.27890 | -82.67368 | 27902 ft | 442 kts | 346° |
| 2026-05-05 01:07 | 29.30950 | -82.67799 | 28202 ft | 444 kts | 346° |
| 2026-05-05 01:07 | 29.34022 | -82.68230 | 28506 ft | 445 kts | 346° |
| 2026-05-05 01:07 | 29.36059 | -82.68515 | 28698 ft | 446 kts | 346° |
| 2026-05-05 01:08 | 29.40194 | -82.69096 | 29123 ft | 448 kts | 346° |
| 2026-05-05 01:08 | 29.43316 | -82.69318 | 29555 ft | 453 kts | 353° |
| 2026-05-05 01:08 | 29.46467 | -82.69292 | 30012 ft | 452 kts | 353° |
| 2026-05-05 01:08 | 29.49608 | -82.69267 | 30402 ft | 450 kts | 352° |
| 2026-05-05 01:09 | 29.52727 | -82.69244 | 30817 ft | 447 kts | 352° |
| 2026-05-05 01:09 | 29.55829 | -82.69223 | 31254 ft | 444 kts | 352° |
| 2026-05-05 01:09 | 29.57869 | -82.69210 | 31559 ft | 441 kts | 352° |
| 2026-05-05 01:09 | 29.60927 | -82.69192 | 32027 ft | 438 kts | 352° |
| 2026-05-05 01:10 | 29.63962 | -82.69175 | 32505 ft | 434 kts | 352° |
| 2026-05-05 01:10 | 29.67010 | -82.69157 | 32990 ft | 430 kts | 352° |
| 2026-05-05 01:10 | 29.69994 | -82.69137 | 33479 ft | 427 kts | 352° |
| 2026-05-05 01:10 | 29.72948 | -82.69116 | 33967 ft | 423 kts | 352° |
| 2026-05-05 01:11 | 29.75883 | -82.69095 | 34378 ft | 421 kts | 352° |
| 2026-05-05 01:11 | 29.78809 | -82.69080 | 34703 ft | 420 kts | 351° |
| 2026-05-05 01:11 | 29.81735 | -82.69067 | 34991 ft | 421 kts | 351° |
| 2026-05-05 01:11 | 29.84664 | -82.69053 | 35273 ft | 422 kts | 352° |
| 2026-05-05 01:12 | 29.87601 | -82.69035 | 35540 ft | 422 kts | 352° |
| 2026-05-05 01:12 | 29.90546 | -82.69016 | 35805 ft | 423 kts | 352° |
| 2026-05-05 01:12 | 29.93491 | -82.68997 | 36075 ft | 424 kts | 352° |
| 2026-05-05 01:12 | 29.96440 | -82.68982 | 36341 ft | 424 kts | 352° |
| 2026-05-05 01:13 | 29.99395 | -82.68964 | 36603 ft | 425 kts | 352° |
| 2026-05-05 01:13 | 30.02353 | -82.68943 | 36856 ft | 425 kts | 352° |
| 2026-05-05 01:13 | 30.05317 | -82.68924 | 37038 ft | 426 kts | 352° |
| 2026-05-05 01:13 | 30.08318 | -82.68907 | 37080 ft | 425 kts | 352° |
| 2026-05-05 01:14 | 30.14225 | -82.68873 | 37083 ft | 424 kts | 352° |
| 2026-05-05 01:14 | 30.20128 | -82.68832 | 37084 ft | 424 kts | 352° |
| 2026-05-05 01:15 | 30.26028 | -82.68795 | 37080 ft | 424 kts | 352° |
| 2026-05-05 01:15 | 30.31921 | -82.68761 | 37083 ft | 423 kts | 352° |
| 2026-05-05 01:16 | 30.37813 | -82.68723 | 37087 ft | 423 kts | 352° |
| 2026-05-05 01:16 | 30.43704 | -82.68681 | 37094 ft | 423 kts | 352° |
| 2026-05-05 01:17 | 30.49591 | -82.68645 | 37098 ft | 424 kts | 352° |
| 2026-05-05 01:17 | 30.55536 | -82.67674 | 37103 ft | 435 kts | 1° |
| 2026-05-05 01:18 | 30.61484 | -82.66396 | 37100 ft | 435 kts | 1° |
| 2026-05-05 01:18 | 30.67477 | -82.65103 | 37094 ft | 435 kts | 1° |
| 2026-05-05 01:19 | 30.73427 | -82.63828 | 37091 ft | 435 kts | 1° |
| 2026-05-05 01:19 | 30.79381 | -82.62562 | 37093 ft | 435 kts | 1° |
| 2026-05-05 01:20 | 30.85338 | -82.61296 | 37095 ft | 435 kts | 1° |
| 2026-05-05 01:20 | 30.91293 | -82.60018 | 37101 ft | 435 kts | 1° |
| 2026-05-05 01:21 | 30.97252 | -82.58742 | 37102 ft | 435 kts | 1° |
| 2026-05-05 01:21 | 31.03211 | -82.57463 | 37105 ft | 435 kts | 1° |
| 2026-05-05 01:22 | 31.09142 | -82.55858 | 37100 ft | 448 kts | 12° |
| 2026-05-05 01:22 | 31.14819 | -82.52580 | 37106 ft | 457 kts | 18° |
| 2026-05-05 01:23 | 31.20503 | -82.49119 | 37105 ft | 458 kts | 18° |
| 2026-05-05 01:23 | 31.26159 | -82.45682 | 37104 ft | 458 kts | 18° |
| 2026-05-05 01:24 | 31.31819 | -82.42251 | 37105 ft | 458 kts | 18° |
| 2026-05-05 01:24 | 31.37481 | -82.38806 | 37099 ft | 459 kts | 18° |
| 2026-05-05 01:25 | 31.43144 | -82.35350 | 37078 ft | 459 kts | 18° |
| 2026-05-05 01:25 | 31.48812 | -82.31884 | 37079 ft | 460 kts | 18° |
| 2026-05-05 01:26 | 31.54490 | -82.28412 | 37080 ft | 460 kts | 18° |
| 2026-05-05 01:26 | 31.60169 | -82.24932 | 37081 ft | 461 kts | 18° |
| 2026-05-05 01:27 | 31.65848 | -82.21446 | 37078 ft | 461 kts | 18° |
| 2026-05-05 01:27 | 31.71532 | -82.17953 | 37093 ft | 461 kts | 19° |
| 2026-05-05 01:28 | 31.77219 | -82.14453 | 37086 ft | 462 kts | 19° |
| 2026-05-05 01:28 | 31.82954 | -82.10922 | 37096 ft | 462 kts | 19° |
| 2026-05-05 01:29 | 31.88650 | -82.07411 | 37100 ft | 462 kts | 19° |
| 2026-05-05 01:29 | 31.94346 | -82.03888 | 37102 ft | 463 kts | 19° |
| 2026-05-05 01:30 | 32.00050 | -82.00362 | 37102 ft | 463 kts | 19° |
| 2026-05-05 01:30 | 32.05752 | -81.96833 | 37100 ft | 463 kts | 20° |
| 2026-05-05 01:31 | 32.11456 | -81.93284 | 37109 ft | 464 kts | 20° |
| 2026-05-05 01:31 | 32.17179 | -81.89753 | 37107 ft | 463 kts | 19° |
| 2026-05-05 01:32 | 32.22949 | -81.86380 | 37104 ft | 463 kts | 18° |
| 2026-05-05 01:32 | 32.28738 | -81.83051 | 37116 ft | 463 kts | 19° |
| 2026-05-05 01:33 | 32.34521 | -81.79672 | 37086 ft | 464 kts | 19° |
| 2026-05-05 01:33 | 32.40298 | -81.76258 | 37089 ft | 464 kts | 19° |
| 2026-05-05 01:34 | 32.46082 | -81.72835 | 37090 ft | 465 kts | 19° |
| 2026-05-05 01:34 | 32.51909 | -81.69394 | 37086 ft | 465 kts | 19° |
| 2026-05-05 01:35 | 32.57703 | -81.65970 | 37119 ft | 465 kts | 20° |
| 2026-05-05 01:35 | 32.63498 | -81.62541 | 37124 ft | 466 kts | 20° |
| 2026-05-05 01:36 | 32.69293 | -81.59108 | 37119 ft | 466 kts | 20° |
| 2026-05-05 01:36 | 32.75091 | -81.55665 | 37120 ft | 466 kts | 20° |
| 2026-05-05 01:37 | 32.80891 | -81.52214 | 37115 ft | 466 kts | 20° |
| 2026-05-05 01:37 | 32.86695 | -81.48753 | 37097 ft | 466 kts | 20° |
| 2026-05-05 01:38 | 32.92495 | -81.45291 | 37100 ft | 467 kts | 20° |
| 2026-05-05 01:38 | 32.98294 | -81.41827 | 37100 ft | 467 kts | 21° |
| 2026-05-05 01:39 | 33.03163 | -81.38916 | 37102 ft | 467 kts | 21° |
| 2026-05-05 01:39 | 33.08970 | -81.35436 | 37103 ft | 467 kts | 21° |
| 2026-05-05 01:40 | 33.14775 | -81.31955 | 37111 ft | 467 kts | 21° |
| 2026-05-05 01:40 | 33.20582 | -81.28465 | 37113 ft | 467 kts | 21° |
| 2026-05-05 01:41 | 33.26387 | -81.24973 | 37110 ft | 467 kts | 21° |
| 2026-05-05 01:41 | 33.32187 | -81.21479 | 37108 ft | 467 kts | 21° |
| 2026-05-05 01:42 | 33.37991 | -81.17974 | 37099 ft | 467 kts | 21° |
| 2026-05-05 01:42 | 33.43787 | -81.14468 | 37080 ft | 467 kts | 21° |
| 2026-05-05 01:43 | 33.49628 | -81.10936 | 37080 ft | 467 kts | 21° |
| 2026-05-05 01:43 | 33.55426 | -81.07428 | 37081 ft | 467 kts | 21° |
| 2026-05-05 01:44 | 33.61222 | -81.03916 | 37082 ft | 467 kts | 21° |
| 2026-05-05 01:44 | 33.67015 | -81.00390 | 37079 ft | 467 kts | 21° |
| 2026-05-05 01:45 | 33.69115 | -80.99106 | 37076 ft | 467 kts | 21° |
| 2026-05-05 01:45 | 33.74902 | -80.95570 | 37077 ft | 467 kts | 21° |
| 2026-05-05 01:46 | 33.80691 | -80.92046 | 37070 ft | 466 kts | 21° |
| 2026-05-05 01:46 | 33.86367 | -80.88222 | 37066 ft | 473 kts | 32° |
| 2026-05-05 01:47 | 33.91569 | -80.83349 | 37069 ft | 474 kts | 33° |
| 2026-05-05 01:47 | 33.96772 | -80.78476 | 37068 ft | 474 kts | 33° |
| 2026-05-05 01:48 | 34.01965 | -80.73599 | 37070 ft | 473 kts | 33° |
| 2026-05-05 01:48 | 34.07158 | -80.68717 | 37070 ft | 473 kts | 33° |
| 2026-05-05 01:49 | 34.12341 | -80.63833 | 37100 ft | 473 kts | 33° |
| 2026-05-05 01:49 | 34.17557 | -80.58910 | 37108 ft | 472 kts | 33° |
| 2026-05-05 01:50 | 34.22725 | -80.54022 | 37116 ft | 472 kts | 33° |
| 2026-05-05 01:50 | 34.27895 | -80.49137 | 37112 ft | 471 kts | 33° |
| 2026-05-05 01:51 | 34.33105 | -80.44338 | 37103 ft | 471 kts | 32° |
| 2026-05-05 01:51 | 34.38328 | -80.39562 | 37103 ft | 471 kts | 33° |
| 2026-05-05 01:52 | 34.43546 | -80.34762 | 37099 ft | 471 kts | 33° |
| 2026-05-05 01:52 | 34.48745 | -80.29945 | 37099 ft | 471 kts | 33° |
| 2026-05-05 01:53 | 34.53942 | -80.25115 | 37101 ft | 471 kts | 33° |
| 2026-05-05 01:53 | 34.59134 | -80.20278 | 37096 ft | 471 kts | 33° |
| 2026-05-05 01:54 | 34.64328 | -80.15447 | 37081 ft | 471 kts | 33° |
| 2026-05-05 01:54 | 34.69527 | -80.10606 | 37079 ft | 471 kts | 33° |
| 2026-05-05 01:55 | 34.74763 | -80.05733 | 37080 ft | 471 kts | 33° |
| 2026-05-05 01:55 | 34.79972 | -80.00891 | 37078 ft | 471 kts | 33° |
| 2026-05-05 01:56 | 34.85213 | -79.96107 | 37077 ft | 471 kts | 31° |
| 2026-05-05 01:56 | 34.90531 | -79.91467 | 37074 ft | 470 kts | 31° |
| 2026-05-05 01:57 | 34.95860 | -79.86828 | 37076 ft | 471 kts | 31° |
| 2026-05-05 01:57 | 35.01172 | -79.82141 | 37071 ft | 471 kts | 31° |
| 2026-05-05 01:58 | 35.06476 | -79.77423 | 37068 ft | 472 kts | 31° |
| 2026-05-05 01:58 | 35.11775 | -79.72695 | 37053 ft | 472 kts | 31° |
| 2026-05-05 01:59 | 35.17083 | -79.67976 | 37050 ft | 472 kts | 31° |
| 2026-05-05 01:59 | 35.22448 | -79.63371 | 37055 ft | 471 kts | 30° |
| 2026-05-05 02:00 | 35.27840 | -79.58812 | 37065 ft | 471 kts | 30° |
| 2026-05-05 02:00 | 35.33230 | -79.54234 | 37069 ft | 471 kts | 30° |
| 2026-05-05 02:01 | 35.38603 | -79.49628 | 37078 ft | 471 kts | 30° |
| 2026-05-05 02:01 | 35.43969 | -79.45006 | 37088 ft | 471 kts | 30° |
| 2026-05-05 02:02 | 35.49365 | -79.40352 | 37075 ft | 471 kts | 30° |
| 2026-05-05 02:02 | 35.54721 | -79.35723 | 37075 ft | 471 kts | 30° |
| 2026-05-05 02:03 | 35.60075 | -79.31099 | 37081 ft | 471 kts | 30° |
| 2026-05-05 02:03 | 35.65431 | -79.26473 | 37083 ft | 470 kts | 30° |
| 2026-05-05 02:04 | 35.70783 | -79.21844 | 37073 ft | 470 kts | 30° |
| 2026-05-05 02:04 | 35.75960 | -79.16906 | 37069 ft | 475 kts | 40° |
| 2026-05-05 02:05 | 35.80675 | -79.11186 | 37073 ft | 476 kts | 40° |
| 2026-05-05 02:05 | 35.85390 | -79.05474 | 37059 ft | 475 kts | 40° |
| 2026-05-05 02:06 | 35.90107 | -78.99756 | 37062 ft | 475 kts | 40° |
| 2026-05-05 02:06 | 35.94821 | -78.94033 | 37065 ft | 475 kts | 40° |
| 2026-05-05 02:07 | 35.99534 | -78.88307 | 37062 ft | 475 kts | 40° |
| 2026-05-05 02:07 | 36.04239 | -78.82570 | 37060 ft | 475 kts | 40° |
| 2026-05-05 02:08 | 36.08936 | -78.76820 | 37053 ft | 475 kts | 41° |
| 2026-05-05 02:08 | 36.13664 | -78.71031 | 37051 ft | 475 kts | 40° |
| 2026-05-05 02:09 | 36.18363 | -78.65281 | 37045 ft | 475 kts | 41° |
| 2026-05-05 02:09 | 36.23058 | -78.59526 | 37047 ft | 475 kts | 41° |
| 2026-05-05 02:10 | 36.27743 | -78.53755 | 37049 ft | 475 kts | 41° |
| 2026-05-05 02:10 | 36.32423 | -78.47981 | 37048 ft | 475 kts | 41° |
| 2026-05-05 02:11 | 36.37110 | -78.42204 | 37046 ft | 475 kts | 41° |
| 2026-05-05 02:11 | 36.41055 | -78.37478 | 37041 ft | 472 kts | 35° |
| 2026-05-05 02:12 | 36.49262 | -78.30839 | 37032 ft | 467 kts | 27° |
| 2026-05-05 02:13 | 36.54776 | -78.26575 | 37054 ft | 467 kts | 27° |
| 2026-05-05 02:13 | 36.60290 | -78.22293 | 37071 ft | 467 kts | 27° |
| 2026-05-05 02:14 | 36.65805 | -78.18012 | 37085 ft | 467 kts | 27° |
| 2026-05-05 02:14 | 36.71321 | -78.13730 | 37090 ft | 467 kts | 27° |
| 2026-05-05 02:15 | 36.76826 | -78.09445 | 37092 ft | 467 kts | 27° |
| 2026-05-05 02:15 | 36.82323 | -78.05146 | 37081 ft | 466 kts | 27° |
| 2026-05-05 02:16 | 36.87819 | -78.00847 | 37064 ft | 466 kts | 27° |
| 2026-05-05 02:16 | 36.93310 | -77.96551 | 37020 ft | 465 kts | 28° |
| 2026-05-05 02:17 | 36.98790 | -77.92255 | 37018 ft | 465 kts | 28° |
| 2026-05-05 02:17 | 37.04266 | -77.87951 | 37019 ft | 464 kts | 28° |
| 2026-05-05 02:18 | 37.09733 | -77.83650 | 36615 ft | 465 kts | 28° |
| 2026-05-05 02:18 | 37.12492 | -77.81478 | 35783 ft | 471 kts | 27° |
| 2026-05-05 02:18 | 37.15277 | -77.79286 | 34953 ft | 475 kts | 27° |
| 2026-05-05 02:18 | 37.18086 | -77.77073 | 34251 ft | 477 kts | 27° |
| 2026-05-05 02:19 | 37.20921 | -77.74833 | 33541 ft | 475 kts | 27° |
| 2026-05-05 02:19 | 37.23687 | -77.72647 | 32695 ft | 476 kts | 27° |
| 2026-05-05 02:19 | 37.26524 | -77.70402 | 31838 ft | 476 kts | 27° |
| 2026-05-05 02:19 | 37.29327 | -77.68183 | 30983 ft | 476 kts | 28° |
| 2026-05-05 02:20 | 37.32130 | -77.65962 | 30101 ft | 474 kts | 28° |
| 2026-05-05 02:20 | 37.34911 | -77.63752 | 28565 ft | 474 kts | 28° |
| 2026-05-05 02:20 | 37.37705 | -77.61532 | 26794 ft | 477 kts | 28° |
| 2026-05-05 02:20 | 37.40537 | -77.59286 | 24852 ft | 485 kts | 28° |
| 2026-05-05 02:21 | 37.43384 | -77.57022 | 23728 ft | 478 kts | 29° |
| 2026-05-05 02:21 | 37.46112 | -77.54840 | 23347 ft | 454 kts | 29° |
| 2026-05-05 02:21 | 37.48767 | -77.52716 | 22515 ft | 451 kts | 28° |
| 2026-05-05 02:21 | 37.51372 | -77.50630 | 22296 ft | 435 kts | 28° |
| 2026-05-05 02:22 | 37.53869 | -77.48624 | 22153 ft | 418 kts | 28° |
| 2026-05-05 02:22 | 37.56293 | -77.46679 | 21889 ft | 408 kts | 28° |
| 2026-05-05 02:22 | 37.58757 | -77.45027 | 21639 ft | 397 kts | 18° |
| 2026-05-05 02:22 | 37.61350 | -77.43963 | 21384 ft | 389 kts | 8° |
| 2026-05-05 02:23 | 37.63977 | -77.43175 | 21144 ft | 387 kts | 8° |
| 2026-05-05 02:23 | 37.66591 | -77.42378 | 20841 ft | 386 kts | 9° |
| 2026-05-05 02:23 | 37.69190 | -77.41575 | 20456 ft | 383 kts | 9° |
| 2026-05-05 02:23 | 37.71770 | -77.40773 | 20078 ft | 381 kts | 9° |
| 2026-05-05 02:24 | 37.74333 | -77.39974 | 19701 ft | 378 kts | 9° |
| 2026-05-05 02:24 | 37.76878 | -77.39185 | 19336 ft | 376 kts | 9° |
| 2026-05-05 02:24 | 37.79409 | -77.38400 | 18967 ft | 374 kts | 9° |
| 2026-05-05 02:24 | 37.81929 | -77.37621 | 18601 ft | 371 kts | 9° |
| 2026-05-05 02:25 | 37.84461 | -77.36838 | 18302 ft | 370 kts | 8° |
| 2026-05-05 02:25 | 37.86923 | -77.36078 | 17914 ft | 367 kts | 9° |
| 2026-05-05 02:25 | 37.89426 | -77.35302 | 17547 ft | 364 kts | 9° |
| 2026-05-05 02:25 | 37.91880 | -77.34541 | 17184 ft | 362 kts | 8° |
| 2026-05-05 02:26 | 37.94316 | -77.33792 | 16825 ft | 359 kts | 8° |
| 2026-05-05 02:26 | 37.96730 | -77.33049 | 16477 ft | 356 kts | 8° |
| 2026-05-05 02:26 | 37.99129 | -77.32313 | 16108 ft | 353 kts | 8° |
| 2026-05-05 02:26 | 38.01507 | -77.31580 | 15763 ft | 350 kts | 8° |
| 2026-05-05 02:27 | 38.03869 | -77.30851 | 15420 ft | 348 kts | 8° |
| 2026-05-05 02:27 | 38.06215 | -77.30124 | 15074 ft | 346 kts | 8° |
| 2026-05-05 02:27 | 38.08544 | -77.29404 | 14735 ft | 343 kts | 8° |
| 2026-05-05 02:27 | 38.10858 | -77.28684 | 14398 ft | 341 kts | 8° |
| 2026-05-05 02:28 | 38.13154 | -77.27967 | 14059 ft | 339 kts | 8° |
| 2026-05-05 02:28 | 38.15437 | -77.27249 | 13722 ft | 337 kts | 8° |
| 2026-05-05 02:28 | 38.17704 | -77.26529 | 13367 ft | 335 kts | 9° |
| 2026-05-05 02:28 | 38.19962 | -77.25808 | 13039 ft | 334 kts | 9° |
| 2026-05-05 02:29 | 38.22201 | -77.25043 | 12770 ft | 333 kts | 10° |
| 2026-05-05 02:29 | 38.24425 | -77.24217 | 12511 ft | 333 kts | 11° |
| 2026-05-05 02:29 | 38.26638 | -77.23364 | 12250 ft | 331 kts | 12° |
| 2026-05-05 02:29 | 38.28840 | -77.22503 | 11988 ft | 330 kts | 12° |
| 2026-05-05 02:30 | 38.31033 | -77.21649 | 11729 ft | 329 kts | 12° |
| 2026-05-05 02:30 | 38.33218 | -77.20807 | 11466 ft | 327 kts | 11° |
| 2026-05-05 02:30 | 38.35392 | -77.19979 | 11208 ft | 326 kts | 11° |
| 2026-05-05 02:30 | 38.37557 | -77.19157 | 10966 ft | 324 kts | 11° |
| 2026-05-05 02:31 | 38.39743 | -77.18323 | 10885 ft | 324 kts | 11° |
| 2026-05-05 02:31 | 38.41896 | -77.17495 | 10788 ft | 323 kts | 12° |
| 2026-05-05 02:31 | 38.44044 | -77.16666 | 10682 ft | 322 kts | 11° |
| 2026-05-05 02:31 | 38.46191 | -77.15836 | 10580 ft | 322 kts | 12° |
| 2026-05-05 02:32 | 38.48331 | -77.15008 | 10464 ft | 321 kts | 11° |
| 2026-05-05 02:32 | 38.50467 | -77.14184 | 10356 ft | 320 kts | 11° |
| 2026-05-05 02:32 | 38.52573 | -77.13370 | 10244 ft | 310 kts | 11° |
| 2026-05-05 02:32 | 38.54592 | -77.12583 | 10119 ft | 297 kts | 11° |
| 2026-05-05 02:33 | 38.56537 | -77.11822 | 9944 ft | 289 kts | 11° |
| 2026-05-05 02:33 | 38.58438 | -77.11081 | 9814 ft | 284 kts | 11° |
| 2026-05-05 02:33 | 38.60325 | -77.10356 | 9561 ft | 283 kts | 11° |
| 2026-05-05 02:33 | 38.62214 | -77.09633 | 9277 ft | 283 kts | 11° |
| 2026-05-05 02:34 | 38.64094 | -77.08913 | 8994 ft | 283 kts | 11° |
| 2026-05-05 02:34 | 38.65978 | -77.08191 | 8706 ft | 282 kts | 11° |
| 2026-05-05 02:34 | 38.67858 | -77.07468 | 8416 ft | 282 kts | 11° |
| 2026-05-05 02:34 | 38.69763 | -77.07012 | 8134 ft | 276 kts | 359° |
| 2026-05-05 02:35 | 38.71679 | -77.06823 | 7853 ft | 276 kts | 359° |
| 2026-05-05 02:35 | 38.73597 | -77.06633 | 7571 ft | 277 kts | 359° |
| 2026-05-05 02:35 | 38.75509 | -77.06584 | 7294 ft | 272 kts | 348° |
| 2026-05-05 02:35 | 38.77301 | -77.07138 | 7121 ft | 259 kts | 333° |
| 2026-05-05 02:36 | 38.78867 | -77.08202 | 6808 ft | 254 kts | 322° |
| 2026-05-05 02:36 | 38.80347 | -77.09430 | 6525 ft | 252 kts | 322° |
| 2026-05-05 02:36 | 38.81820 | -77.10645 | 6262 ft | 252 kts | 322° |
| 2026-05-05 02:36 | 38.83263 | -77.11899 | 6050 ft | 248 kts | 316° |
| 2026-05-05 02:37 | 38.84517 | -77.13412 | 5868 ft | 249 kts | 311° |
| 2026-05-05 02:37 | 38.85775 | -77.14980 | 5352 ft | 252 kts | 311° |
| 2026-05-05 02:37 | 38.87017 | -77.16523 | 5022 ft | 246 kts | 311° |
| 2026-05-05 02:37 | 38.88240 | -77.18043 | 4602 ft | 244 kts | 311° |
| 2026-05-05 02:38 | 38.89467 | -77.19569 | 4141 ft | 242 kts | 311° |
| 2026-05-05 02:38 | 38.90677 | -77.21072 | 3648 ft | 243 kts | 311° |
| 2026-05-05 02:38 | 38.91888 | -77.22576 | 3330 ft | 241 kts | 311° |
| 2026-05-05 02:38 | 38.93111 | -77.24096 | 3218 ft | 246 kts | 311° |
| 2026-05-05 02:39 | 38.94562 | -77.25283 | 3085 ft | 254 kts | 336° |
| 2026-05-05 02:39 | 38.96304 | -77.25394 | 2943 ft | 251 kts | 9° |
| 2026-05-05 02:39 | 38.97803 | -77.24372 | 2825 ft | 242 kts | 44° |
| 2026-05-05 02:39 | 38.98624 | -77.22567 | 2726 ft | 231 kts | 79° |
| 2026-05-05 02:40 | 38.98643 | -77.20574 | 2733 ft | 220 kts | 109° |
| 2026-05-05 02:40 | 38.98042 | -77.18822 | 2718 ft | 213 kts | 127° |
| 2026-05-05 02:40 | 38.97305 | -77.17165 | 2726 ft | 215 kts | 127° |
| 2026-05-05 02:40 | 38.96537 | -77.15555 | 2731 ft | 201 kts | 136° |
| 2026-05-05 02:41 | 38.95606 | -77.14309 | 2599 ft | 188 kts | 150° |
| 2026-05-05 02:41 | 38.94632 | -77.13229 | 2337 ft | 182 kts | 150° |
| 2026-05-05 02:41 | 38.93680 | -77.12174 | 2098 ft | 178 kts | 149° |
| 2026-05-05 02:41 | 38.92691 | -77.11391 | 1860 ft | 156 kts | 163° |
| 2026-05-05 02:42 | 38.91790 | -77.10797 | 1676 ft | 137 kts | 164° |
| 2026-05-05 02:42 | 38.91054 | -77.10041 | 1484 ft | 136 kts | 139° |
| 2026-05-05 02:42 | 38.90578 | -77.08962 | 1297 ft | 145 kts | 117° |
| 2026-05-05 02:42 | 38.90298 | -77.07733 | 1102 ft | 140 kts | 121° |
| 2026-05-05 02:43 | 38.89752 | -77.06758 | 976 ft | 133 kts | 140° |
| 2026-05-05 02:43 | 38.89132 | -77.05897 | 754 ft | 130 kts | 138° |
| 2026-05-05 02:43 | 38.88503 | -77.05064 | 600 ft | 129 kts | 139° |
| 2026-05-05 02:43 | 38.87835 | -77.04306 | 401 ft | 127 kts | 150° |
| 2026-05-05 02:44 | 38.86998 | -77.03970 | 216 ft | 128 kts | 176° |
| 2026-05-05 02:44 | 38.86123 | -77.03871 | 68 ft | 126 kts | 176° |
| 2026-05-05 02:44 | 38.85314 | -77.03795 | 23 ft | 98 kts | 175° |
| 2026-05-05 02:44 | 38.84990 | -77.03759 | 24 ft | 40 kts | 174° |
| 2026-05-05 02:45 | 38.84884 | -77.03816 | 23 ft | 10 kts | 249° |
| 2026-05-05 02:45 | 38.84894 | -77.03883 | 25 ft | 8 kts | 315° |
| 2026-05-05 02:45 | 38.84959 | -77.03897 | 24 ft | 11 kts | 358° |
| 2026-05-05 02:45 | 38.85044 | -77.03904 | 24 ft | 13 kts | 355° |
| 2026-05-05 02:46 | 38.85125 | -77.03914 | 24 ft | 6 kts | 354° |
| 2026-05-05 02:46 | 38.85152 | -77.03950 | 27 ft | 7 kts | 272° |
| 2026-05-05 02:46 | 38.85110 | -77.03976 | 24 ft | 9 kts | 173° |
| 2026-05-05 02:46 | 38.85047 | -77.03971 | 24 ft | 8 kts | 200° |
| 2026-05-05 02:47 | 38.85035 | -77.04026 | 24 ft | 4 kts | 264° |
| 2026-05-05 02:47 | 38.85034 | -77.04046 | 24 ft | 0 kts | 265° |